createdAt,value
2022-09-10T06:41:54.035Z,59.889999
2022-09-10T06:43:03.730Z,60.026001
2022-09-10T06:44:11.497Z,60.200001
2022-09-10T06:45:19.188Z,60.257
2022-09-10T06:48:32.650Z,60.387001
2022-09-10T06:48:50.043Z,60.446999
2022-09-10T06:49:58.497Z,60.446999
2022-09-10T06:51:08.120Z,60.498001
2022-09-10T06:52:17.719Z,60.495998
2022-09-10T06:53:25.335Z,60.511002
2022-09-10T06:54:33.981Z,60.553001
2022-09-10T06:55:42.485Z,60.541
2022-09-10T06:56:51.072Z,60.523998
2022-09-10T06:58:00.693Z,60.530998
2022-09-10T06:59:09.262Z,60.450001
2022-09-10T07:00:18.827Z,60.398998
2022-09-10T07:01:27.505Z,60.419998
2022-09-10T07:02:35.005Z,60.444
2022-09-10T07:03:43.589Z,60.332001
2022-09-10T07:04:53.166Z,60.389
2022-09-10T07:06:01.811Z,60.393002
2022-09-10T07:07:10.392Z,60.432999
2022-09-10T07:08:18.978Z,60.320999
2022-09-10T07:09:27.562Z,60.403
2022-09-10T07:10:37.183Z,60.317001
2022-09-10T07:11:45.749Z,60.327
2022-09-10T07:12:53.324Z,60.313999
2022-09-10T07:14:02.919Z,60.285
2022-09-10T07:15:12.481Z,60.251999
2022-09-10T07:16:21.047Z,60.247002
2022-09-10T07:17:31.844Z,60.234001
2022-09-10T07:18:38.295Z,60.201
2022-09-10T07:19:47.908Z,60.150002
2022-09-10T07:20:56.478Z,60.193001
2022-09-10T07:22:04.049Z,60.176998
2022-09-10T07:23:13.602Z,60.212002
2022-09-10T07:24:22.250Z,60.160999
2022-09-10T07:25:30.859Z,60.186001
2022-09-10T07:26:38.483Z,60.18
2022-09-10T07:27:48.162Z,60.154999
2022-09-10T07:28:56.637Z,60.095001
2022-09-10T07:30:05.259Z,60.145
2022-09-10T07:31:12.840Z,60.118999
2022-09-10T07:32:22.395Z,60.108002
2022-09-10T07:33:30.969Z,60.151001
2022-09-10T07:34:39.576Z,60.164001
2022-09-10T07:35:48.181Z,60.140999
2022-09-10T07:36:56.780Z,60.126999
2022-09-10T07:38:05.341Z,60.152
2022-09-10T07:39:12.922Z,60.164001
2022-09-10T07:40:20.502Z,60.164001
2022-09-10T07:41:30.222Z,60.181
2022-09-10T07:42:38.609Z,60.159
2022-09-10T07:43:48.185Z,60.145
2022-09-10T07:44:57.802Z,60.157001
2022-09-10T07:46:06.373Z,60.244999
2022-09-10T07:47:15.900Z,60.250999
2022-09-10T07:48:25.541Z,60.226002
2022-09-10T07:49:34.135Z,60.189999
2022-09-10T07:50:43.746Z,60.229
2022-09-10T07:51:54.431Z,60.290001
2022-09-10T07:53:01.891Z,60.257999
2022-09-10T07:54:10.434Z,60.352001
2022-09-10T07:55:18.997Z,60.326
2022-09-10T07:56:28.704Z,60.32
2022-09-10T07:57:37.053Z,60.356998
2022-09-10T07:58:44.652Z,60.323002
2022-09-10T07:59:54.361Z,60.347
2022-09-10T08:01:04.186Z,60.389999
2022-09-10T08:02:13.856Z,60.431
2022-09-10T08:03:23.448Z,60.382
2022-09-10T08:04:36.674Z,60.459
2022-09-10T08:05:42.937Z,60.508999
2022-09-10T08:06:51.615Z,60.445
2022-09-10T08:07:59.360Z,60.488998
2022-09-10T08:09:09.099Z,60.437
2022-09-10T08:10:17.687Z,60.599998
2022-09-10T08:11:27.286Z,60.713001
2022-09-10T08:12:35.882Z,60.668999
2022-09-10T08:13:44.489Z,60.707001
2022-09-10T08:14:54.177Z,60.613998
2022-09-10T08:16:02.823Z,60.595001
2022-09-10T08:17:10.441Z,60.632999
2022-09-10T08:18:20.066Z,60.534
2022-09-10T08:19:29.668Z,60.682999
2022-09-10T08:20:38.372Z,60.527
2022-09-10T08:21:47.063Z,60.549999
2022-09-10T08:22:55.685Z,60.665001
2022-09-10T08:24:05.254Z,60.638
2022-09-10T08:25:13.158Z,60.645
2022-09-10T08:26:21.989Z,60.625
2022-09-10T08:27:31.621Z,60.577
2022-09-10T08:28:39.342Z,60.582001
2022-09-10T08:29:49.031Z,60.608002
2022-09-10T08:30:57.646Z,60.671001
2022-09-10T08:32:06.208Z,60.605999
2022-09-10T08:33:16.036Z,60.529999
2022-09-10T08:34:25.582Z,60.375
2022-09-10T08:35:35.190Z,60.417999
2022-09-10T08:36:43.744Z,60.469002
2022-09-10T08:37:51.492Z,60.474998
2022-09-10T08:39:04.117Z,60.41
2022-09-10T08:40:11.066Z,60.493
2022-09-10T08:41:19.704Z,60.425999
2022-09-10T08:42:28.420Z,60.452999
2022-09-10T08:43:36.998Z,60.605
2022-09-10T08:44:46.839Z,60.577999
2022-09-10T08:45:55.371Z,60.634998
2022-09-10T08:47:02.896Z,60.604
2022-09-10T08:48:12.537Z,60.597
2022-09-10T08:49:21.195Z,60.615002
2022-09-10T08:50:30.838Z,60.568001
2022-09-10T08:51:40.396Z,60.555
2022-09-10T08:52:48.970Z,60.571999
2022-09-10T08:53:58.574Z,60.584
2022-09-10T08:55:06.244Z,60.571999
2022-09-10T08:56:13.907Z,60.583
2022-09-10T08:57:23.440Z,60.549
2022-09-10T08:58:32.151Z,60.491001
2022-09-10T08:59:40.781Z,60.542
2022-09-10T09:00:49.634Z,60.486
2022-09-10T09:01:57.465Z,60.499001
2022-09-10T09:03:07.120Z,60.395
2022-09-10T09:04:14.796Z,60.321999
2022-09-10T09:05:22.478Z,60.332001
2022-09-10T09:06:31.249Z,60.271999
2022-09-10T09:07:40.914Z,60.537998
2022-09-10T09:08:49.586Z,60.622002
2022-09-10T09:09:59.287Z,60.556
2022-09-10T09:11:07.912Z,60.548
2022-09-10T09:12:17.584Z,60.568001
2022-09-10T09:13:27.192Z,60.561001
2022-09-10T09:14:35.772Z,60.550999
2022-09-10T09:15:45.460Z,60.532001
2022-09-10T09:16:54.149Z,60.415001
2022-09-10T09:18:03.700Z,60.494999
2022-09-10T09:19:12.431Z,60.516998
2022-09-10T09:20:21.401Z,60.618999
2022-09-10T09:21:31.741Z,60.599998
2022-09-10T09:22:40.416Z,60.574001
2022-09-10T09:24:09.666Z,60.550999
2022-09-10T09:25:00.660Z,60.389
2022-09-10T09:26:10.395Z,60.402
2022-09-10T09:27:20.128Z,60.402
2022-09-10T09:28:28.879Z,60.445999
2022-09-10T09:29:38.556Z,60.485001
2022-09-10T09:30:48.382Z,60.452999
2022-09-10T09:31:55.869Z,60.419998
2022-09-10T09:33:05.517Z,60.451
2022-09-10T09:34:15.115Z,60.404999
2022-09-10T09:35:23.741Z,60.419998
2022-09-10T09:36:33.344Z,60.409
2022-09-10T09:37:41.975Z,60.383999
2022-09-10T09:38:51.742Z,60.365002
2022-09-10T09:40:01.467Z,60.352001
2022-09-10T09:41:11.105Z,60.346001
2022-09-10T09:42:19.790Z,60.317001
2022-09-10T09:43:29.369Z,60.361
2022-09-10T09:44:39.156Z,60.271999
2022-09-10T09:45:46.955Z,60.224998
2022-09-10T09:46:56.084Z,60.201
2022-09-10T09:48:04.725Z,60.175999
2022-09-10T09:49:14.327Z,60.181999
2022-09-10T09:50:24.200Z,60.291
2022-09-10T09:51:32.895Z,60.291
2022-09-10T09:52:42.649Z,60.285
2022-09-10T09:54:01.127Z,60.334
2022-09-10T09:55:17.326Z,60.243
2022-09-10T09:56:12.851Z,60.286999
2022-09-10T09:57:22.143Z,60.353001
2022-09-10T09:58:33.048Z,60.487999
2022-09-10T09:59:42.995Z,60.416
2022-09-10T10:00:52.986Z,60.287998
2022-09-10T10:02:02.930Z,60.287998
2022-09-10T10:03:12.468Z,60.276001
2022-09-10T10:04:21.280Z,60.473999
2022-09-10T10:05:32.007Z,60.521
2022-09-10T10:06:40.828Z,60.41
2022-09-10T10:07:50.425Z,60.467999
2022-09-10T10:08:59.086Z,60.459999
2022-09-10T10:10:08.791Z,60.459999
2022-09-10T10:11:18.362Z,60.375
2022-09-10T10:12:28.037Z,60.501999
2022-09-10T10:13:36.706Z,60.501999
2022-09-10T10:14:46.346Z,60.448002
2022-09-10T10:15:56.892Z,60.280998
2022-09-10T10:17:06.543Z,60.238998
2022-09-10T10:18:16.234Z,60.285999
2022-09-10T10:19:23.887Z,60.330002
2022-09-10T10:20:34.129Z,60.516998
2022-09-10T10:21:43.965Z,60.446999
2022-09-10T10:22:53.706Z,60.528999
2022-09-10T10:24:03.346Z,60.444
2022-09-10T10:25:11.964Z,60.424999
2022-09-10T10:26:22.047Z,60.509998
2022-09-10T10:27:30.962Z,60.553001
2022-09-10T10:28:41.559Z,60.487
2022-09-10T10:29:49.189Z,60.479
2022-09-10T10:30:56.246Z,60.603001
2022-09-10T10:32:06.670Z,60.603001
2022-09-10T10:33:16.263Z,60.665001
2022-09-10T10:34:26.305Z,60.724998
2022-09-10T10:35:35.122Z,60.634998
2022-09-10T10:36:43.732Z,60.68
2022-09-10T10:37:54.289Z,60.790001
2022-09-10T10:39:02.753Z,60.808998
2022-09-10T10:40:11.579Z,60.777
2022-09-10T10:41:21.578Z,60.912998
2022-09-10T10:42:31.178Z,60.967999
2022-09-10T10:43:40.275Z,61.019001
2022-09-10T10:44:50.197Z,60.875999
2022-09-10T10:45:58.902Z,60.797001
2022-09-10T10:47:09.202Z,60.610001
2022-09-10T10:48:16.857Z,60.562
2022-09-10T10:49:27.940Z,60.445
2022-09-10T10:50:37.718Z,60.223
2022-09-10T10:51:46.268Z,60.254002
2022-09-10T10:52:55.010Z,60.352001
2022-09-10T10:54:04.109Z,60.245998
2022-09-10T10:55:13.306Z,60.331001
2022-09-10T10:56:22.939Z,60.307999
2022-09-10T10:57:31.407Z,60.265999
2022-09-10T10:58:38.798Z,60.363998
2022-09-10T10:59:48.344Z,60.209
2022-09-10T11:00:57.928Z,60.054001
2022-09-10T11:02:06.756Z,60.141998
2022-09-10T11:03:16.726Z,60.238998
2022-09-10T11:04:25.309Z,60.229
2022-09-10T11:05:33.917Z,60.187
2022-09-10T11:06:42.817Z,60.143002
2022-09-10T11:07:51.412Z,60.192001
2022-09-10T11:09:01.356Z,60.153999
2022-09-10T11:10:10.310Z,60.055
2022-09-10T11:11:18.936Z,60.027
2022-09-10T11:12:28.580Z,59.974998
2022-09-10T11:13:38.257Z,59.928001
2022-09-10T11:14:47.846Z,59.974998
2022-09-10T11:15:55.486Z,59.896
2022-09-10T11:17:04.425Z,59.957001
2022-09-10T11:18:14.886Z,59.957001
2022-09-10T11:19:23.790Z,59.84
2022-09-10T11:20:33.424Z,59.799999
2022-09-10T11:21:42.977Z,59.786999
2022-09-10T11:22:51.950Z,59.941002
2022-09-10T11:24:01.623Z,59.889999
2022-09-10T11:25:09.227Z,59.946999
2022-09-10T11:26:19.769Z,59.811001
2022-09-10T11:27:29.465Z,59.602001
2022-09-10T11:28:38.425Z,59.537998
2022-09-10T11:29:47.989Z,59.861
2022-09-10T11:30:57.613Z,59.965
2022-09-10T11:32:08.267Z,60.040001
2022-09-10T11:33:17.953Z,60.014
2022-09-10T11:34:25.943Z,59.988998
2022-09-10T11:35:35.574Z,60.019001
2022-09-10T11:36:45.592Z,59.993999
2022-09-10T11:37:53.288Z,59.946999
2022-09-10T11:39:03.024Z,59.928001
2022-09-10T11:40:13.602Z,59.844002
2022-09-10T11:41:21.091Z,59.903999
2022-09-10T11:42:30.696Z,59.884998
2022-09-10T11:43:38.312Z,59.868999
2022-09-10T11:44:45.902Z,59.862999
2022-09-10T11:45:55.500Z,59.819
2022-09-10T11:47:05.249Z,59.773998
2022-09-10T11:48:15.475Z,59.715
2022-09-10T11:49:25.179Z,59.745998
2022-09-10T11:50:35.712Z,59.676998
2022-09-10T11:51:45.294Z,59.627998
2022-09-10T11:52:52.835Z,59.59
2022-09-10T11:54:00.451Z,59.577999
2022-09-10T11:55:10.043Z,59.530998
2022-09-10T11:56:18.659Z,59.467999
2022-09-10T11:57:27.493Z,59.436001
2022-09-10T11:58:36.964Z,59.389
2022-09-10T11:59:45.556Z,59.375999
2022-09-10T12:00:55.113Z,59.394001
2022-09-10T12:02:02.946Z,59.388
2022-09-10T12:03:10.447Z,59.368999
2022-09-10T12:04:20.070Z,59.320999
2022-09-10T12:05:28.870Z,59.313999
2022-09-10T12:06:37.695Z,59.268002
2022-09-10T12:07:46.957Z,59.278999
2022-09-10T12:08:55.583Z,59.234001
2022-09-10T12:10:05.195Z,59.202999
2022-09-10T12:11:15.653Z,59.168999
2022-09-10T12:12:23.347Z,59.105
2022-09-10T12:13:32.896Z,59.117001
2022-09-10T12:14:41.462Z,59.205002
2022-09-10T12:15:51.066Z,59.205002
2022-09-10T12:17:00.486Z,59.032001
2022-09-10T12:18:10.131Z,58.993999
2022-09-10T12:19:19.721Z,59.076
2022-09-10T12:20:28.324Z,59.056999
2022-09-10T12:21:37.753Z,59.092999
2022-09-10T12:22:47.386Z,59.112
2022-09-10T12:23:54.962Z,59.080002
2022-09-10T12:25:04.553Z,59.027
2022-09-10T12:26:14.156Z,59.105
2022-09-10T12:27:22.717Z,59.168999
2022-09-10T12:28:31.336Z,59.181
2022-09-10T12:29:40.248Z,59.168999
2022-09-10T12:30:49.810Z,59.112
2022-09-10T12:31:58.511Z,59.161999
2022-09-10T12:33:08.316Z,59.209
2022-09-10T12:34:17.929Z,59.215
2022-09-10T12:35:27.488Z,59.131001
2022-09-10T12:36:36.119Z,59.085999
2022-09-10T12:37:45.167Z,59.070999
2022-09-10T12:38:54.910Z,59.046001
2022-09-10T12:40:04.520Z,59.001999
2022-09-10T12:41:15.159Z,58.976002
2022-09-10T12:42:24.033Z,58.976002
2022-09-10T12:43:33.620Z,58.946999
2022-09-10T12:44:42.288Z,58.837002
2022-09-10T12:45:50.946Z,58.844002
2022-09-10T12:47:00.476Z,58.818001
2022-09-10T12:48:09.237Z,58.837002
2022-09-10T12:49:19.668Z,58.896999
2022-09-10T12:50:28.262Z,58.941002
2022-09-10T12:51:35.891Z,59.123001
2022-09-10T12:52:45.428Z,58.935001
2022-09-10T12:53:54.002Z,58.966
2022-09-10T12:55:03.565Z,59.095001
2022-09-10T12:56:15.499Z,58.985001
2022-09-10T12:57:20.791Z,59.050999
2022-09-10T12:58:30.428Z,59.123001
2022-09-10T12:59:38.032Z,59.050999
2022-09-10T13:00:47.203Z,59.089001
2022-09-10T13:01:56.878Z,58.936001
2022-09-10T13:03:05.332Z,58.910999
2022-09-10T13:04:13.977Z,58.876999
2022-09-10T13:05:22.526Z,58.813
2022-09-10T13:06:32.184Z,58.782001
2022-09-10T13:07:42.856Z,58.742001
2022-09-10T13:08:51.741Z,58.782001
2022-09-10T13:10:00.551Z,58.813
2022-09-10T13:11:10.181Z,58.889
2022-09-10T13:12:18.709Z,58.787998
2022-09-10T13:13:27.277Z,58.82
2022-09-10T13:14:35.878Z,59.109001
2022-09-10T13:15:44.469Z,59.116001
2022-09-10T13:16:54.029Z,58.955002
2022-09-10T13:18:02.402Z,58.923
2022-09-10T13:19:12.880Z,58.876999
2022-09-10T13:20:26.462Z,58.942001
2022-09-10T13:21:34.725Z,58.917
2022-09-10T13:22:44.317Z,58.949001
2022-09-10T13:23:53.881Z,59.070999
2022-09-10T13:25:05.667Z,59.051998
2022-09-10T13:26:15.308Z,58.949001
2022-09-10T13:27:23.008Z,59.09
2022-09-10T13:28:32.516Z,59.018002
2022-09-10T13:29:42.079Z,59.084
2022-09-10T13:30:51.705Z,59.103001
2022-09-10T13:32:01.401Z,59.207001
2022-09-10T13:33:09.071Z,59.167999
2022-09-10T13:34:17.628Z,59.161999
2022-09-10T13:35:27.214Z,59.018002
2022-09-10T13:36:35.785Z,59.070999
2022-09-10T13:37:44.410Z,59.219002
2022-09-10T13:38:56.830Z,59.181
2022-09-10T13:40:05.762Z,59.244999
2022-09-10T13:41:14.304Z,59.231998
2022-09-10T13:42:25.165Z,59.084
2022-09-10T13:43:36.421Z,59.051998
2022-09-10T13:44:46.593Z,59.103001
2022-09-10T13:45:55.969Z,59.103001
2022-09-10T13:47:05.163Z,59.127998
2022-09-10T13:48:14.728Z,59.213001
2022-09-10T13:49:23.366Z,59.174999
2022-09-10T13:50:34.501Z,59.194
2022-09-10T13:51:45.898Z,59.155998
2022-09-10T13:52:55.268Z,59.116001
2022-09-10T13:54:06.584Z,59.097
2022-09-10T13:55:17.055Z,59.027
2022-09-10T13:56:26.062Z,59.064999
2022-09-10T13:57:36.914Z,59.006001
2022-09-10T13:58:46.917Z,58.955002
2022-09-10T13:59:57.357Z,59.046001
2022-09-10T14:01:11.434Z,58.923
2022-09-10T14:02:22.158Z,59.006001
2022-09-10T14:03:34.301Z,58.923
2022-09-10T14:04:45.318Z,58.903999
2022-09-10T14:05:52.686Z,58.987
2022-09-10T14:07:06.038Z,58.967999
2022-09-10T14:08:14.815Z,58.993
2022-09-10T14:09:24.187Z,59
2022-09-10T14:10:34.123Z,58.949001
2022-09-10T14:11:44.299Z,58.98
2022-09-10T14:12:55.849Z,58.93
2022-09-10T14:14:06.006Z,58.967999
2022-09-10T14:15:18.714Z,58.967999
2022-09-10T14:16:30.303Z,58.896
2022-09-10T14:17:38.725Z,58.960999
2022-09-10T14:18:48.377Z,58.923
2022-09-10T14:19:58.205Z,59.018002
2022-09-10T14:21:15.835Z,58.949001
2022-09-10T14:22:28.235Z,58.946999
2022-09-10T14:23:42.510Z,58.870998
2022-09-10T14:24:52.352Z,58.876999
2022-09-10T14:26:01.127Z,58.826
2022-09-10T14:27:09.748Z,58.858002
2022-09-10T14:28:19.285Z,58.870998
2022-09-10T14:29:27.872Z,58.852001
2022-09-10T14:30:36.426Z,58.852001
2022-09-10T14:31:44.971Z,58.870998
2022-09-10T14:32:53.647Z,58.852001
2022-09-10T14:34:03.281Z,58.876999
2022-09-10T14:35:10.865Z,58.889
2022-09-10T14:36:19.491Z,58.870998
2022-09-10T14:37:29.166Z,58.882999
2022-09-10T14:38:37.770Z,58.973999
2022-09-10T14:39:47.993Z,58.903999
2022-09-10T14:40:57.970Z,58.942001
2022-09-10T14:42:06.541Z,58.949001
2022-09-10T14:43:16.171Z,59
2022-09-10T14:44:24.775Z,59.046001
2022-09-10T14:45:34.793Z,59.064999
2022-09-10T14:46:44.351Z,59.012001
2022-09-10T14:47:53.181Z,59.027
2022-09-10T14:49:03.295Z,59.070999
2022-09-10T14:50:12.867Z,59.063
2022-09-10T14:51:21.716Z,59.134998
2022-09-10T14:52:31.358Z,59.154999
2022-09-10T14:53:39.046Z,59.237
2022-09-10T14:54:46.611Z,59.210999
2022-09-10T14:55:56.525Z,59.321999
2022-09-10T14:57:06.112Z,59.334
2022-09-10T14:58:14.723Z,59.387001
2022-09-10T14:59:23.277Z,59.368
2022-09-10T15:00:32.023Z,59.438
2022-09-10T15:01:42.618Z,59.375
2022-09-10T15:02:50.184Z,59.327999
2022-09-10T15:03:58.747Z,59.283001
2022-09-10T15:05:08.366Z,59.251999
2022-09-10T15:06:16.918Z,59.290001
2022-09-10T15:07:26.496Z,59.244999
2022-09-10T15:08:35.125Z,59.23
2022-09-10T15:09:43.680Z,59.264
2022-09-10T15:10:53.488Z,59.217999
2022-09-10T15:12:01.016Z,59.277
2022-09-10T15:13:10.591Z,59.251999
2022-09-10T15:14:20.155Z,59.23
2022-09-10T15:15:28.732Z,59.283001
2022-09-10T15:16:37.316Z,59.237
2022-09-10T15:17:45.884Z,59.271
2022-09-10T15:18:54.465Z,59.290001
2022-09-10T15:20:04.085Z,59.283001
2022-09-10T15:21:12.587Z,59.362
2022-09-10T15:22:21.196Z,59.368
2022-09-10T15:23:30.844Z,59.491001
2022-09-10T15:24:58.972Z,59.223999
2022-09-10T15:25:50.065Z,59.431999
2022-09-10T15:26:58.623Z,59.308998
